createdAt,value
2019-02-11T00:02:17.256Z,98071.81
2019-02-11T00:07:21.714Z,98067.57
2019-02-11T00:12:26.104Z,98064.14
2019-02-11T00:17:30.546Z,98086.73
2019-02-11T00:22:34.901Z,98070.05
2019-02-11T00:27:39.373Z,98090.02
2019-02-11T00:32:43.664Z,98116.57
2019-02-11T00:37:47.838Z,98131.16
2019-02-11T00:42:52.108Z,98131.16
2019-02-11T00:47:56.545Z,98167.24
2019-02-11T00:53:00.867Z,98167.24
2019-02-11T00:58:05.242Z,98176.77
2019-02-11T01:03:09.412Z,98194.53
2019-02-11T01:08:13.669Z,98218.39
2019-02-11T01:13:17.768Z,98218.39
2019-02-11T01:18:23.097Z,98222.75
2019-02-11T01:23:27.203Z,98232.95
2019-02-11T01:28:31.260Z,98241.52
2019-02-11T01:33:35.474Z,98247.55
2019-02-11T01:38:39.588Z,98262.28
2019-02-11T01:43:43.668Z,98269.67
2019-02-11T01:48:47.736Z,98288.27
2019-02-11T01:53:51.876Z,98291.27
2019-02-11T01:58:56.094Z,98312.90
2019-02-11T02:04:00.338Z,98320.28
2019-02-11T02:09:05.580Z,98320.28
2019-02-11T02:14:09.802Z,98353.19
2019-02-11T02:19:13.922Z,98361.37
2019-02-11T02:24:18.116Z,98380.34
2019-02-11T02:29:22.402Z,98389.90
2019-02-11T02:34:26.617Z,98416.89
2019-02-11T02:39:30.843Z,98427.64
2019-02-11T02:44:34.981Z,98433.17
2019-02-11T02:49:39.213Z,98443.58
2019-02-11T02:54:43.332Z,98453.98
2019-02-11T02:59:47.587Z,98456.82
2019-02-11T03:04:51.671Z,98462.44
2019-02-11T03:09:56.077Z,98502.74
2019-02-11T03:15:00.275Z,98502.74
2019-02-11T03:20:05.110Z,98529.88
2019-02-11T03:25:09.376Z,98560.78
2019-02-11T03:30:13.639Z,98560.78
2019-02-11T03:35:17.845Z,98588.80
2019-02-11T03:40:21.991Z,98605.77
2019-02-11T03:45:26.117Z,98605.77
2019-02-11T03:50:30.302Z,98618.09
2019-02-11T03:55:34.525Z,98639.65
2019-02-11T04:00:39.192Z,98646.48
2019-02-11T04:05:43.397Z,98666.02
2019-02-11T04:10:47.572Z,98683.48
2019-02-11T04:15:51.674Z,98696.77
2019-02-11T04:20:55.726Z,98703.64
2019-02-11T04:25:59.775Z,98715.48
2019-02-11T04:31:04.019Z,98715.48
2019-02-11T04:36:08.127Z,98741.36
2019-02-11T04:41:12.272Z,98752.70
2019-02-11T04:46:16.325Z,98752.70
2019-02-11T04:51:20.522Z,98764.70
2019-02-11T04:56:24.797Z,98764.70
2019-02-11T05:01:29.046Z,98785.70
2019-02-11T05:06:33.282Z,98809.03
2019-02-11T05:11:37.464Z,98815.05
2019-02-11T05:16:41.738Z,98815.05
2019-02-11T05:21:46.098Z,98823.95
2019-02-11T05:26:50.362Z,98837.18
2019-02-11T05:31:54.649Z,98837.18
2019-02-11T05:36:58.858Z,98848.39
2019-02-11T05:42:03.004Z,98861.47
2019-02-11T05:47:07.236Z,98856.42
2019-02-11T05:52:11.479Z,98888.97
2019-02-11T05:57:15.707Z,98897.53
2019-02-11T06:02:22.374Z,98920.01
2019-02-11T06:07:26.439Z,98918.95
2019-02-11T06:12:30.593Z,98947.72
2019-02-11T06:17:34.695Z,98941.42
2019-02-11T06:22:38.926Z,98967.13
2019-02-11T06:27:43.148Z,98975.33
2019-02-11T06:32:47.409Z,98976.67
2019-02-11T06:37:51.679Z,98994.77
2019-02-11T06:42:55.976Z,99016.26
2019-02-11T06:48:00.306Z,99016.26
2019-02-11T06:53:04.433Z,99046.41
2019-02-11T06:58:08.763Z,99063.87
2019-02-11T07:03:13.239Z,99063.87
2019-02-11T07:08:17.514Z,99073.55
2019-02-11T07:13:21.689Z,99086.13
2019-02-11T07:18:26.083Z,99095.63
2019-02-11T07:23:30.196Z,99104.57
2019-02-11T07:28:34.436Z,99104.57
2019-02-11T07:33:38.639Z,99128.62
2019-02-11T07:38:42.796Z,99128.62
2019-02-11T07:44:00.778Z,99152.31
2019-02-11T07:49:04.931Z,99199.77
2019-02-11T07:54:09.084Z,99199.77
2019-02-11T07:59:13.221Z,99225.30
2019-02-11T08:04:17.632Z,99211.03
2019-02-11T08:09:21.951Z,99215.91
2019-02-11T08:14:26.140Z,99212.66
2019-02-11T08:19:30.209Z,99212.66
2019-02-11T08:24:34.318Z,99218.96
2019-02-11T08:29:38.609Z,99230.93
2019-02-11T08:34:42.657Z,99230.93
2019-02-11T08:39:46.930Z,99246.27
2019-02-11T08:44:51.108Z,99263.89
2019-02-11T08:49:55.205Z,99276.84
2019-02-11T08:54:59.270Z,99277.70
2019-02-11T09:00:03.698Z,99277.70
2019-02-11T09:05:08.681Z,99297.55
2019-02-11T09:10:13.447Z,99297.55
2019-02-11T09:15:17.612Z,99315.82
2019-02-11T09:20:21.783Z,99318.38
2019-02-11T09:25:25.954Z,99323.88
2019-02-11T09:30:30.183Z,99330.78
2019-02-11T09:35:34.380Z,99334.41
2019-02-11T09:40:38.584Z,99347.23
2019-02-11T09:45:42.818Z,99349.92
2019-02-11T09:50:49.391Z,99349.92
2019-02-11T09:55:53.550Z,99380.81
2019-02-11T10:00:57.815Z,99383.24
2019-02-11T10:06:01.968Z,99401.00
2019-02-11T10:11:06.125Z,99404.77
2019-02-11T10:16:12.516Z,99407.81
2019-02-11T10:21:16.584Z,99418.56
2019-02-11T10:26:20.782Z,99424.20
2019-02-11T10:31:24.966Z,99424.20
2019-02-11T10:36:29.007Z,99445.80
2019-02-11T10:41:33.066Z,99445.80
2019-02-11T10:46:37.293Z,99461.00
2019-02-11T10:51:41.432Z,99461.00
2019-02-11T10:56:45.632Z,99462.58
2019-02-11T11:01:49.872Z,99468.94
2019-02-11T11:06:54.119Z,99477.73
2019-02-11T11:11:58.196Z,99481.27
2019-02-11T11:17:02.449Z,99490.30
2019-02-11T11:22:06.660Z,99496.52
2019-02-11T11:27:10.776Z,99493.76
2019-02-11T11:32:15.445Z,99514.66
2019-02-11T11:37:19.723Z,99538.75
2019-02-11T11:42:23.916Z,99551.13
2019-02-11T11:47:28.190Z,99569.69
2019-02-11T11:52:32.293Z,99568.97
2019-02-11T11:57:36.557Z,99587.16
2019-02-11T12:02:40.670Z,99587.06
2019-02-11T12:07:44.864Z,99586.17
2019-02-11T12:12:49.085Z,99580.05
2019-02-11T12:17:53.598Z,99587.48
2019-02-11T12:22:57.904Z,99617.53
2019-02-11T12:28:02.190Z,99617.53
2019-02-11T12:33:06.418Z,99641.77
2019-02-11T12:38:10.582Z,99629.69
2019-02-11T12:43:14.601Z,99620.22
2019-02-11T12:48:18.616Z,99645.60
2019-02-11T12:53:22.637Z,99685.30
2019-02-11T12:58:26.816Z,99704.05
2019-02-11T13:03:30.974Z,99687.93
2019-02-11T13:08:36.111Z,99687.93
2019-02-11T13:13:40.433Z,99689.84
2019-02-11T13:18:44.549Z,99688.52
2019-02-11T13:23:48.831Z,99698.00
2019-02-11T13:28:52.921Z,99698.00
2019-02-11T13:33:56.963Z,99710.41
2019-02-11T13:39:01.108Z,99725.52
2019-02-11T13:44:05.298Z,99725.52
2019-02-11T13:49:11.486Z,99753.23
2019-02-11T13:54:15.589Z,99777.45
2019-02-11T13:59:19.814Z,99785.86
2019-02-11T14:04:27.919Z,99785.00
2019-02-11T14:09:30.088Z,99796.48
2019-02-11T14:14:34.253Z,99814.89
2019-02-11T14:19:38.446Z,99833.59
2019-02-11T14:24:42.458Z,99843.70
2019-02-11T14:29:46.582Z,99841.06
2019-02-11T14:34:50.736Z,99841.02
2019-02-11T14:39:54.781Z,99848.23
2019-02-11T14:44:58.884Z,99848.23
2019-02-11T14:50:03.087Z,99878.79
2019-02-11T14:55:07.434Z,99886.98
2019-02-11T15:00:17.047Z,99878.59
2019-02-11T15:05:21.263Z,99893.70
2019-02-11T15:10:25.294Z,99904.70
2019-02-11T15:15:29.468Z,99916.64
2019-02-11T15:20:33.508Z,99936.03
2019-02-11T15:25:37.675Z,99986.02
2019-02-11T15:30:41.726Z,99986.02
2019-02-11T15:35:45.753Z,100019.89
2019-02-11T15:40:49.792Z,100024.84
2019-02-11T15:45:53.828Z,100024.84
2019-02-11T15:50:57.901Z,100032.48
2019-02-11T15:56:07.728Z,100063.58
2019-02-11T16:01:07.811Z,100069.24
2019-02-11T16:06:11.918Z,100076.59
2019-02-11T16:11:16.019Z,100087.52
2019-02-11T16:16:20.065Z,100103.97
2019-02-11T16:21:24.145Z,100117.73
2019-02-11T16:26:28.331Z,100121.39
2019-02-11T16:31:32.413Z,100135.13
2019-02-11T16:36:36.546Z,100139.80
2019-02-11T16:41:40.633Z,100149.44
2019-02-11T16:46:44.751Z,100167.78
2019-02-11T16:51:48.895Z,100173.22
2019-02-11T16:56:52.993Z,100189.36
2019-02-11T17:01:57.291Z,100201.22
2019-02-11T17:07:01.531Z,100211.94
2019-02-11T17:12:05.838Z,100211.94
2019-02-11T17:17:10.138Z,100231.82
2019-02-11T17:22:14.435Z,100231.82
2019-02-11T17:27:18.537Z,100253.16
2019-02-11T17:32:22.710Z,100273.31
2019-02-11T17:37:26.957Z,100278.59
2019-02-11T17:42:31.059Z,100284.68
2019-02-11T17:47:35.193Z,100302.43
2019-02-11T17:52:39.473Z,100316.93
2019-02-11T17:57:43.771Z,100328.50
2019-02-11T18:02:47.947Z,100346.50
2019-02-11T18:07:52.167Z,100347.91
2019-02-11T18:13:01.171Z,100347.91
2019-02-11T18:18:05.520Z,100376.95
2019-02-11T18:23:09.649Z,100394.74
2019-02-11T18:28:13.891Z,100403.64
2019-02-11T18:33:18.083Z,100427.37
2019-02-11T18:38:22.316Z,100427.37
2019-02-11T18:43:26.651Z,100435.46
2019-02-11T18:48:30.896Z,100455.04
2019-02-11T18:53:36.069Z,100464.86
2019-02-11T18:58:40.365Z,100472.52
2019-02-11T19:03:44.493Z,100472.52
2019-02-11T19:08:48.577Z,100492.26
2019-02-11T19:13:52.739Z,100506.79
2019-02-11T19:18:56.855Z,100526.27
2019-02-11T19:24:00.975Z,100538.21
2019-02-11T19:29:05.209Z,100555.12
2019-02-11T19:34:09.348Z,100571.45
2019-02-11T19:39:15.596Z,100573.70
2019-02-11T19:44:19.743Z,100590.09
2019-02-11T19:49:23.897Z,100597.75
2019-02-11T19:54:28.005Z,100597.75
2019-02-11T19:59:32.016Z,100616.00
2019-02-11T20:04:36.195Z,100614.34
2019-02-11T20:09:40.350Z,100625.80
2019-02-11T20:14:44.419Z,100623.53
2019-02-11T20:19:48.643Z,100623.53
2019-02-11T20:24:52.698Z,100642.93
2019-02-11T20:29:56.764Z,100646.70
2019-02-11T20:35:00.895Z,100646.70
2019-02-11T20:40:05.806Z,100659.08
2019-02-11T20:45:12.811Z,100677.26
2019-02-11T20:50:16.913Z,100682.47
2019-02-11T20:55:21.085Z,100692.29
2019-02-11T21:00:25.386Z,100692.29
2019-02-11T21:05:29.519Z,100715.48
2019-02-11T21:10:33.561Z,100712.52
2019-02-11T21:15:37.716Z,100707.89
2019-02-11T21:20:41.927Z,100707.89
2019-02-11T21:25:46.105Z,100733.47
2019-02-11T21:30:50.527Z,100733.47
2019-02-11T21:35:54.678Z,100733.19
2019-02-11T21:40:58.853Z,100728.64
2019-02-11T21:46:02.930Z,100751.53
2019-02-11T21:51:07.093Z,100749.53
2019-02-11T21:56:11.199Z,100749.53
2019-02-11T22:01:15.249Z,100760.47
2019-02-11T22:06:19.370Z,100766.34
2019-02-11T22:11:23.462Z,100770.86
2019-02-11T22:16:27.513Z,100770.86
2019-02-11T22:21:31.589Z,100771.23
2019-02-11T22:26:35.657Z,100765.61
2019-02-11T22:31:39.769Z,100773.31
2019-02-11T22:36:43.806Z,100773.31
2019-02-11T22:41:47.848Z,100785.91
2019-02-11T22:46:51.891Z,100779.97
2019-02-11T22:51:56.158Z,100786.59
2019-02-11T22:57:00.247Z,100786.59
2019-02-11T23:02:04.860Z,100803.23
2019-02-11T23:07:09.229Z,100805.92
2019-02-11T23:12:13.600Z,100822.07
2019-02-11T23:17:17.940Z,100823.00
2019-02-11T23:22:22.333Z,100848.09
2019-02-11T23:27:26.482Z,100848.09
2019-02-11T23:32:30.842Z,100865.05
2019-02-11T23:37:35.299Z,100865.70
2019-02-11T23:42:39.670Z,100868.00
2019-02-11T23:47:43.957Z,100885.02
2019-02-11T23:52:48.276Z,100885.41
2019-02-11T23:57:52.553Z,100881.18
